sensor_id;sensor_type;location;lat;lon;timestamp;P1;durP1;ratioP1;P2;durP2;ratioP2
66095;SDS011;53861;53.422;14.530;2023-08-30T00:00:07;5.25;;;2.97;;
66095;SDS011;53861;53.422;14.530;2023-08-30T00:02:39;5.70;;;2.70;;
66095;SDS011;53861;53.422;14.530;2023-08-30T00:05:06;4.93;;;2.95;;
66095;SDS011;53861;53.422;14.530;2023-08-30T00:07:35;6.53;;;3.10;;
66095;SDS011;53861;53.422;14.530;2023-08-30T00:10:02;5.40;;;2.97;;
66095;SDS011;53861;53.422;14.530;2023-08-30T00:12:30;6.88;;;3.40;;
66095;SDS011;53861;53.422;14.530;2023-08-30T00:14:57;5.40;;;3.13;;
66095;SDS011;53861;53.422;14.530;2023-08-30T00:17:26;7.47;;;3.53;;
66095;SDS011;53861;53.422;14.530;2023-08-30T00:19:53;6.45;;;3.40;;
66095;SDS011;53861;53.422;14.530;2023-08-30T00:22:21;7.05;;;3.30;;
66095;SDS011;53861;53.422;14.530;2023-08-30T00:24:49;4.60;;;3.00;;
66095;SDS011;53861;53.422;14.530;2023-08-30T00:27:16;8.93;;;3.70;;
66095;SDS011;53861;53.422;14.530;2023-08-30T00:29:45;9.02;;;3.45;;
66095;SDS011;53861;53.422;14.530;2023-08-30T00:32:16;6.03;;;3.75;;
66095;SDS011;53861;53.422;14.530;2023-08-30T00:34:45;5.75;;;3.70;;
66095;SDS011;53861;53.422;14.530;2023-08-30T00:37:12;5.70;;;3.55;;
66095;SDS011;53861;53.422;14.530;2023-08-30T00:39:39;6.90;;;3.88;;
66095;SDS011;53861;53.422;14.530;2023-08-30T00:42:08;8.50;;;3.72;;
66095;SDS011;53861;53.422;14.530;2023-08-30T00:44:35;10.75;;;4.00;;
66095;SDS011;53861;53.422;14.530;2023-08-30T00:47:02;7.57;;;3.83;;
66095;SDS011;53861;53.422;14.530;2023-08-30T00:49:30;7.13;;;3.90;;
66095;SDS011;53861;53.422;14.530;2023-08-30T00:52:00;8.20;;;3.47;;
66095;SDS011;53861;53.422;14.530;2023-08-30T00:54:29;6.65;;;3.70;;
66095;SDS011;53861;53.422;14.530;2023-08-30T00:56:56;6.20;;;3.78;;
66095;SDS011;53861;53.422;14.530;2023-08-30T00:59:24;7.90;;;4.10;;
66095;SDS011;53861;53.422;14.530;2023-08-30T01:01:53;8.13;;;4.05;;
66095;SDS011;53861;53.422;14.530;2023-08-30T01:04:22;10.73;;;3.90;;
66095;SDS011;53861;53.422;14.530;2023-08-30T01:06:50;6.53;;;3.95;;
66095;SDS011;53861;53.422;14.530;2023-08-30T01:09:19;8.10;;;4.28;;
66095;SDS011;53861;53.422;14.530;2023-08-30T01:11:48;8.75;;;3.92;;
66095;SDS011;53861;53.422;14.530;2023-08-30T01:14:21;9.73;;;4.57;;
66095;SDS011;53861;53.422;14.530;2023-08-30T01:16:52;6.93;;;4.20;;
66095;SDS011;53861;53.422;14.530;2023-08-30T01:19:26;8.05;;;4.60;;
66095;SDS011;53861;53.422;14.530;2023-08-30T01:22:14;7.00;;;4.45;;
66095;SDS011;53861;53.422;14.530;2023-08-30T01:27:24;8.23;;;4.63;;
66095;SDS011;53861;53.422;14.530;2023-08-30T01:29:53;8.10;;;4.50;;
66095;SDS011;53861;53.422;14.530;2023-08-30T01:32:23;8.00;;;4.82;;
66095;SDS011;53861;53.422;14.530;2023-08-30T01:34:54;7.50;;;4.50;;
66095;SDS011;53861;53.422;14.530;2023-08-30T01:37:22;9.35;;;5.15;;
66095;SDS011;53861;53.422;14.530;2023-08-30T01:39:51;9.90;;;4.85;;
66095;SDS011;53861;53.422;14.530;2023-08-30T01:42:19;7.78;;;4.80;;
66095;SDS011;53861;53.422;14.530;2023-08-30T01:44:49;9.70;;;4.97;;
66095;SDS011;53861;53.422;14.530;2023-08-30T01:47:20;8.48;;;4.80;;
66095;SDS011;53861;53.422;14.530;2023-08-30T01:49:49;8.85;;;5.20;;
66095;SDS011;53861;53.422;14.530;2023-08-30T01:52:16;8.23;;;5.45;;
66095;SDS011;53861;53.422;14.530;2023-08-30T01:54:44;8.50;;;4.80;;
66095;SDS011;53861;53.422;14.530;2023-08-30T01:57:13;9.18;;;5.13;;
66095;SDS011;53861;53.422;14.530;2023-08-30T01:59:40;9.63;;;5.30;;
66095;SDS011;53861;53.422;14.530;2023-08-30T02:02:09;10.43;;;5.65;;
66095;SDS011;53861;53.422;14.530;2023-08-30T02:04:36;11.88;;;5.95;;
66095;SDS011;53861;53.422;14.530;2023-08-30T02:07:04;11.27;;;5.97;;
66095;SDS011;53861;53.422;14.530;2023-08-30T02:09:36;12.35;;;5.57;;
66095;SDS011;53861;53.422;14.530;2023-08-30T02:12:07;9.07;;;5.47;;
66095;SDS011;53861;53.422;14.530;2023-08-30T02:14:40;9.70;;;5.88;;
66095;SDS011;53861;53.422;14.530;2023-08-30T02:17:11;12.07;;;5.38;;
66095;SDS011;53861;53.422;14.530;2023-08-30T02:19:40;9.38;;;5.25;;
66095;SDS011;53861;53.422;14.530;2023-08-30T02:22:08;10.80;;;5.20;;
66095;SDS011;53861;53.422;14.530;2023-08-30T02:24:35;10.07;;;5.50;;
66095;SDS011;53861;53.422;14.530;2023-08-30T02:27:03;8.93;;;5.80;;
66095;SDS011;53861;53.422;14.530;2023-08-30T02:29:30;10.40;;;5.63;;
66095;SDS011;53861;53.422;14.530;2023-08-30T02:31:57;8.52;;;5.22;;
66095;SDS011;53861;53.422;14.530;2023-08-30T02:34:26;8.65;;;5.20;;
66095;SDS011;53861;53.422;14.530;2023-08-30T02:36:53;9.95;;;5.10;;
66095;SDS011;53861;53.422;14.530;2023-08-30T02:39:20;9.75;;;5.10;;
66095;SDS011;53861;53.422;14.530;2023-08-30T02:41:47;8.25;;;4.95;;
66095;SDS011;53861;53.422;14.530;2023-08-30T02:44:15;10.07;;;5.40;;
66095;SDS011;53861;53.422;14.530;2023-08-30T02:46:42;10.00;;;5.32;;
66095;SDS011;53861;53.422;14.530;2023-08-30T02:49:09;12.15;;;5.75;;
66095;SDS011;53861;53.422;14.530;2023-08-30T02:51:38;11.00;;;5.93;;
66095;SDS011;53861;53.422;14.530;2023-08-30T02:54:05;9.88;;;5.60;;
66095;SDS011;53861;53.422;14.530;2023-08-30T02:56:33;10.32;;;6.18;;
66095;SDS011;53861;53.422;14.530;2023-08-30T02:59:00;10.95;;;5.47;;
66095;SDS011;53861;53.422;14.530;2023-08-30T03:01:27;9.07;;;5.60;;
66095;SDS011;53861;53.422;14.530;2023-08-30T03:03:54;9.60;;;5.45;;
66095;SDS011;53861;53.422;14.530;2023-08-30T03:06:22;11.20;;;5.88;;
66095;SDS011;53861;53.422;14.530;2023-08-30T03:08:50;9.73;;;5.70;;
66095;SDS011;53861;53.422;14.530;2023-08-30T03:11:18;9.88;;;5.53;;
66095;SDS011;53861;53.422;14.530;2023-08-30T03:13:47;10.82;;;5.40;;
66095;SDS011;53861;53.422;14.530;2023-08-30T03:16:14;7.72;;;4.88;;
66095;SDS011;53861;53.422;14.530;2023-08-30T03:18:42;11.15;;;5.30;;
66095;SDS011;53861;53.422;14.530;2023-08-30T03:21:10;11.38;;;5.18;;
66095;SDS011;53861;53.422;14.530;2023-08-30T03:23:38;7.60;;;4.75;;
66095;SDS011;53861;53.422;14.530;2023-08-30T03:26:10;10.68;;;5.07;;
66095;SDS011;53861;53.422;14.530;2023-08-30T03:28:39;11.55;;;5.25;;
66095;SDS011;53861;53.422;14.530;2023-08-30T03:31:13;11.63;;;5.18;;
66095;SDS011;53861;53.422;14.530;2023-08-30T03:33:41;9.80;;;5.28;;
66095;SDS011;53861;53.422;14.530;2023-08-30T03:36:09;9.50;;;5.35;;
66095;SDS011;53861;53.422;14.530;2023-08-30T03:38:37;8.82;;;5.00;;
66095;SDS011;53861;53.422;14.530;2023-08-30T03:41:05;9.02;;;5.30;;
66095;SDS011;53861;53.422;14.530;2023-08-30T03:43:34;9.43;;;5.55;;
66095;SDS011;53861;53.422;14.530;2023-08-30T03:46:01;10.57;;;5.75;;
66095;SDS011;53861;53.422;14.530;2023-08-30T03:48:29;10.02;;;5.40;;
66095;SDS011;53861;53.422;14.530;2023-08-30T03:50:56;9.85;;;5.80;;
66095;SDS011;53861;53.422;14.530;2023-08-30T03:53:24;10.95;;;5.47;;
66095;SDS011;53861;53.422;14.530;2023-08-30T03:55:51;9.82;;;5.15;;
66095;SDS011;53861;53.422;14.530;2023-08-30T03:58:19;9.10;;;5.70;;
66095;SDS011;53861;53.422;14.530;2023-08-30T04:00:47;9.02;;;5.72;;
66095;SDS011;53861;53.422;14.530;2023-08-30T04:03:15;10.30;;;6.40;;
66095;SDS011;53861;53.422;14.530;2023-08-30T04:05:42;11.90;;;6.20;;
66095;SDS011;53861;53.422;14.530;2023-08-30T04:08:10;13.98;;;6.30;;
66095;SDS011;53861;53.422;14.530;2023-08-30T04:10:37;11.60;;;5.82;;
66095;SDS011;53861;53.422;14.530;2023-08-30T04:13:05;12.60;;;6.57;;
66095;SDS011;53861;53.422;14.530;2023-08-30T04:15:34;10.68;;;6.18;;
66095;SDS011;53861;53.422;14.530;2023-08-30T04:18:03;12.88;;;6.75;;
66095;SDS011;53861;53.422;14.530;2023-08-30T04:20:32;15.65;;;7.00;;
66095;SDS011;53861;53.422;14.530;2023-08-30T04:23:00;16.73;;;7.28;;
66095;SDS011;53861;53.422;14.530;2023-08-30T04:25:28;12.15;;;6.80;;
66095;SDS011;53861;53.422;14.530;2023-08-30T04:27:56;13.25;;;6.72;;
66095;SDS011;53861;53.422;14.530;2023-08-30T04:30:23;13.15;;;7.35;;
66095;SDS011;53861;53.422;14.530;2023-08-30T04:32:50;16.25;;;6.88;;
66095;SDS011;53861;53.422;14.530;2023-08-30T04:35:19;16.70;;;7.80;;
66095;SDS011;53861;53.422;14.530;2023-08-30T04:37:47;12.85;;;7.75;;
66095;SDS011;53861;53.422;14.530;2023-08-30T04:40:15;12.98;;;7.32;;
66095;SDS011;53861;53.422;14.530;2023-08-30T04:42:42;16.23;;;7.38;;
66095;SDS011;53861;53.422;14.530;2023-08-30T04:45:09;15.27;;;8.52;;
66095;SDS011;53861;53.422;14.530;2023-08-30T04:47:37;16.58;;;8.15;;
66095;SDS011;53861;53.422;14.530;2023-08-30T04:50:05;15.07;;;7.25;;
66095;SDS011;53861;53.422;14.530;2023-08-30T04:52:34;13.68;;;7.75;;
66095;SDS011;53861;53.422;14.530;2023-08-30T04:55:02;15.05;;;7.47;;
66095;SDS011;53861;53.422;14.530;2023-08-30T04:57:29;14.02;;;7.60;;
66095;SDS011;53861;53.422;14.530;2023-08-30T04:59:57;12.27;;;7.10;;
66095;SDS011;53861;53.422;14.530;2023-08-30T05:02:25;13.02;;;8.05;;
66095;SDS011;53861;53.422;14.530;2023-08-30T05:04:52;11.55;;;6.63;;
66095;SDS011;53861;53.422;14.530;2023-08-30T05:07:20;13.38;;;7.00;;
66095;SDS011;53861;53.422;14.530;2023-08-30T05:09:48;12.88;;;7.20;;
66095;SDS011;53861;53.422;14.530;2023-08-30T05:12:16;12.10;;;7.25;;
66095;SDS011;53861;53.422;14.530;2023-08-30T05:14:43;15.57;;;7.95;;
66095;SDS011;53861;53.422;14.530;2023-08-30T05:17:10;28.42;;;12.32;;
66095;SDS011;53861;53.422;14.530;2023-08-30T05:19:37;18.10;;;8.73;;
66095;SDS011;53861;53.422;14.530;2023-08-30T05:22:05;19.50;;;9.60;;
66095;SDS011;53861;53.422;14.530;2023-08-30T05:24:33;15.80;;;9.20;;
66095;SDS011;53861;53.422;14.530;2023-08-30T05:27:01;14.88;;;8.98;;
66095;SDS011;53861;53.422;14.530;2023-08-30T05:29:29;15.93;;;8.32;;
66095;SDS011;53861;53.422;14.530;2023-08-30T05:31:56;22.40;;;9.60;;
66095;SDS011;53861;53.422;14.530;2023-08-30T05:34:23;20.08;;;9.43;;
66095;SDS011;53861;53.422;14.530;2023-08-30T05:36:52;17.90;;;9.52;;
66095;SDS011;53861;53.422;14.530;2023-08-30T05:39:19;19.95;;;9.52;;
66095;SDS011;53861;53.422;14.530;2023-08-30T05:41:47;15.85;;;8.73;;
66095;SDS011;53861;53.422;14.530;2023-08-30T05:44:15;19.05;;;9.85;;
66095;SDS011;53861;53.422;14.530;2023-08-30T05:46:42;19.95;;;9.90;;
66095;SDS011;53861;53.422;14.530;2023-08-30T05:49:10;17.02;;;8.98;;
66095;SDS011;53861;53.422;14.530;2023-08-30T05:51:38;17.10;;;9.13;;
66095;SDS011;53861;53.422;14.530;2023-08-30T05:54:05;19.90;;;10.38;;
66095;SDS011;53861;53.422;14.530;2023-08-30T05:56:32;19.80;;;10.15;;
66095;SDS011;53861;53.422;14.530;2023-08-30T05:59:00;16.13;;;8.70;;
66095;SDS011;53861;53.422;14.530;2023-08-30T06:01:29;17.67;;;9.43;;
66095;SDS011;53861;53.422;14.530;2023-08-30T06:03:56;17.30;;;9.23;;
66095;SDS011;53861;53.422;14.530;2023-08-30T06:06:23;18.85;;;10.00;;
66095;SDS011;53861;53.422;14.530;2023-08-30T06:08:50;19.92;;;10.40;;
66095;SDS011;53861;53.422;14.530;2023-08-30T06:11:18;20.50;;;10.18;;
66095;SDS011;53861;53.422;14.530;2023-08-30T06:13:45;19.58;;;9.77;;
66095;SDS011;53861;53.422;14.530;2023-08-30T06:16:12;20.00;;;9.68;;
66095;SDS011;53861;53.422;14.530;2023-08-30T06:18:41;19.27;;;9.40;;
66095;SDS011;53861;53.422;14.530;2023-08-30T06:21:08;18.02;;;9.68;;
66095;SDS011;53861;53.422;14.530;2023-08-30T06:23:37;19.77;;;10.02;;
66095;SDS011;53861;53.422;14.530;2023-08-30T06:26:05;20.10;;;9.25;;
66095;SDS011;53861;53.422;14.530;2023-08-30T06:28:32;21.42;;;10.00;;
66095;SDS011;53861;53.422;14.530;2023-08-30T06:30:59;20.38;;;9.60;;
66095;SDS011;53861;53.422;14.530;2023-08-30T06:33:27;19.55;;;10.35;;
66095;SDS011;53861;53.422;14.530;2023-08-30T06:35:56;21.58;;;10.38;;
66095;SDS011;53861;53.422;14.530;2023-08-30T06:38:23;22.83;;;11.15;;
66095;SDS011;53861;53.422;14.530;2023-08-30T06:40:50;21.30;;;9.52;;
66095;SDS011;53861;53.422;14.530;2023-08-30T06:43:17;18.73;;;9.18;;
66095;SDS011;53861;53.422;14.530;2023-08-30T06:45:45;21.17;;;10.52;;
66095;SDS011;53861;53.422;14.530;2023-08-30T06:48:13;18.30;;;9.65;;
66095;SDS011;53861;53.422;14.530;2023-08-30T06:50:40;18.15;;;9.60;;
66095;SDS011;53861;53.422;14.530;2023-08-30T06:53:08;20.27;;;8.70;;
66095;SDS011;53861;53.422;14.530;2023-08-30T06:55:36;17.80;;;8.82;;
66095;SDS011;53861;53.422;14.530;2023-08-30T06:58:03;15.77;;;8.18;;
66095;SDS011;53861;53.422;14.530;2023-08-30T07:00:31;15.18;;;8.00;;
66095;SDS011;53861;53.422;14.530;2023-08-30T07:02:58;17.73;;;9.45;;
66095;SDS011;53861;53.422;14.530;2023-08-30T07:05:26;16.15;;;9.20;;
66095;SDS011;53861;53.422;14.530;2023-08-30T07:07:53;15.38;;;8.48;;
66095;SDS011;53861;53.422;14.530;2023-08-30T07:10:22;14.18;;;8.38;;
66095;SDS011;53861;53.422;14.530;2023-08-30T07:12:50;15.25;;;7.97;;
66095;SDS011;53861;53.422;14.530;2023-08-30T07:15:17;18.70;;;8.75;;
66095;SDS011;53861;53.422;14.530;2023-08-30T07:17:44;16.95;;;7.80;;
66095;SDS011;53861;53.422;14.530;2023-08-30T07:20:12;15.70;;;8.20;;
66095;SDS011;53861;53.422;14.530;2023-08-30T07:22:39;16.88;;;7.93;;
66095;SDS011;53861;53.422;14.530;2023-08-30T07:25:07;15.93;;;7.97;;
66095;SDS011;53861;53.422;14.530;2023-08-30T07:27:37;13.35;;;7.60;;
66095;SDS011;53861;53.422;14.530;2023-08-30T07:30:05;15.93;;;7.47;;
66095;SDS011;53861;53.422;14.530;2023-08-30T07:32:34;12.60;;;7.35;;
66095;SDS011;53861;53.422;14.530;2023-08-30T07:35:01;14.90;;;6.80;;
66095;SDS011;53861;53.422;14.530;2023-08-30T07:37:29;13.15;;;7.38;;
66095;SDS011;53861;53.422;14.530;2023-08-30T07:39:56;14.90;;;7.63;;
66095;SDS011;53861;53.422;14.530;2023-08-30T07:42:23;14.10;;;7.15;;
66095;SDS011;53861;53.422;14.530;2023-08-30T07:44:52;13.55;;;7.50;;
66095;SDS011;53861;53.422;14.530;2023-08-30T07:47:19;13.93;;;7.47;;
66095;SDS011;53861;53.422;14.530;2023-08-30T07:49:47;12.38;;;6.30;;
66095;SDS011;53861;53.422;14.530;2023-08-30T07:52:14;16.08;;;7.30;;
66095;SDS011;53861;53.422;14.530;2023-08-30T07:54:41;13.65;;;6.72;;
66095;SDS011;53861;53.422;14.530;2023-08-30T07:57:09;13.48;;;7.07;;
66095;SDS011;53861;53.422;14.530;2023-08-30T07:59:36;13.18;;;6.90;;
66095;SDS011;53861;53.422;14.530;2023-08-30T08:02:05;13.63;;;7.35;;
66095;SDS011;53861;53.422;14.530;2023-08-30T08:04:33;14.50;;;7.72;;
66095;SDS011;53861;53.422;14.530;2023-08-30T08:07:01;17.02;;;7.72;;
66095;SDS011;53861;53.422;14.530;2023-08-30T08:09:30;13.55;;;7.38;;
66095;SDS011;53861;53.422;14.530;2023-08-30T08:11:58;11.88;;;6.78;;
66095;SDS011;53861;53.422;14.530;2023-08-30T08:14:25;13.35;;;7.22;;
66095;SDS011;53861;53.422;14.530;2023-08-30T08:16:53;12.27;;;7.20;;
66095;SDS011;53861;53.422;14.530;2023-08-30T08:19:22;12.05;;;7.05;;
66095;SDS011;53861;53.422;14.530;2023-08-30T08:21:49;10.50;;;6.50;;
66095;SDS011;53861;53.422;14.530;2023-08-30T08:24:19;13.23;;;6.88;;
66095;SDS011;53861;53.422;14.530;2023-08-30T08:26:47;13.20;;;6.32;;
66095;SDS011;53861;53.422;14.530;2023-08-30T08:29:15;10.30;;;5.97;;
66095;SDS011;53861;53.422;14.530;2023-08-30T08:31:42;12.48;;;6.13;;
66095;SDS011;53861;53.422;14.530;2023-08-30T08:34:10;13.02;;;6.53;;
66095;SDS011;53861;53.422;14.530;2023-08-30T08:36:40;10.52;;;5.75;;
66095;SDS011;53861;53.422;14.530;2023-08-30T08:39:09;9.95;;;5.90;;
66095;SDS011;53861;53.422;14.530;2023-08-30T08:41:39;14.15;;;6.00;;
66095;SDS011;53861;53.422;14.530;2023-08-30T08:44:08;10.65;;;5.90;;
66095;SDS011;53861;53.422;14.530;2023-08-30T08:46:36;12.68;;;6.95;;
66095;SDS011;53861;53.422;14.530;2023-08-30T08:49:07;10.80;;;5.03;;
66095;SDS011;53861;53.422;14.530;2023-08-30T08:51:37;11.60;;;6.03;;
66095;SDS011;53861;53.422;14.530;2023-08-30T08:54:06;10.32;;;6.20;;
66095;SDS011;53861;53.422;14.530;2023-08-30T08:56:34;10.95;;;6.20;;
66095;SDS011;53861;53.422;14.530;2023-08-30T08:59:03;10.07;;;5.53;;
66095;SDS011;53861;53.422;14.530;2023-08-30T09:01:31;12.48;;;5.65;;
66095;SDS011;53861;53.422;14.530;2023-08-30T09:04:03;10.55;;;5.20;;
66095;SDS011;53861;53.422;14.530;2023-08-30T09:06:32;12.27;;;5.80;;
66095;SDS011;53861;53.422;14.530;2023-08-30T09:09:00;18.13;;;6.70;;
66095;SDS011;53861;53.422;14.530;2023-08-30T09:11:30;14.30;;;6.55;;
66095;SDS011;53861;53.422;14.530;2023-08-30T09:13:58;12.13;;;5.60;;
66095;SDS011;53861;53.422;14.530;2023-08-30T09:16:25;14.05;;;5.88;;
66095;SDS011;53861;53.422;14.530;2023-08-30T09:19:02;9.98;;;5.40;;
66095;SDS011;53861;53.422;14.530;2023-08-30T09:21:30;9.57;;;5.35;;
66095;SDS011;53861;53.422;14.530;2023-08-30T09:23:58;10.10;;;5.47;;
66095;SDS011;53861;53.422;14.530;2023-08-30T09:26:26;15.32;;;6.03;;
66095;SDS011;53861;53.422;14.530;2023-08-30T09:29:00;14.75;;;6.00;;
66095;SDS011;53861;53.422;14.530;2023-08-30T09:31:32;14.63;;;5.57;;
66095;SDS011;53861;53.422;14.530;2023-08-30T09:34:00;9.18;;;4.68;;
66095;SDS011;53861;53.422;14.530;2023-08-30T09:36:33;14.10;;;6.30;;
66095;SDS011;53861;53.422;14.530;2023-08-30T09:39:05;19.23;;;6.80;;
66095;SDS011;53861;53.422;14.530;2023-08-30T09:41:35;11.52;;;5.50;;
66095;SDS011;53861;53.422;14.530;2023-08-30T09:44:10;8.52;;;4.20;;
66095;SDS011;53861;53.422;14.530;2023-08-30T09:46:44;9.07;;;4.20;;
66095;SDS011;53861;53.422;14.530;2023-08-30T09:49:12;12.77;;;4.63;;
66095;SDS011;53861;53.422;14.530;2023-08-30T09:51:41;19.92;;;5.70;;
66095;SDS011;53861;53.422;14.530;2023-08-30T09:54:12;8.55;;;4.88;;
66095;SDS011;53861;53.422;14.530;2023-08-30T09:56:41;11.93;;;4.43;;
66095;SDS011;53861;53.422;14.530;2023-08-30T09:59:11;9.15;;;4.20;;
66095;SDS011;53861;53.422;14.530;2023-08-30T10:01:40;9.25;;;5.45;;
66095;SDS011;53861;53.422;14.530;2023-08-30T10:04:09;9.02;;;4.45;;
66095;SDS011;53861;53.422;14.530;2023-08-30T10:06:39;11.35;;;4.95;;
66095;SDS011;53861;53.422;14.530;2023-08-30T10:09:07;11.63;;;6.00;;
66095;SDS011;53861;53.422;14.530;2023-08-30T10:11:35;9.07;;;5.28;;
66095;SDS011;53861;53.422;14.530;2023-08-30T10:14:05;8.07;;;4.18;;
66095;SDS011;53861;53.422;14.530;2023-08-30T10:16:37;7.15;;;3.75;;
66095;SDS011;53861;53.422;14.530;2023-08-30T10:19:10;9.25;;;4.00;;
66095;SDS011;53861;53.422;14.530;2023-08-30T10:21:39;8.48;;;3.88;;
66095;SDS011;53861;53.422;14.530;2023-08-30T10:24:08;12.50;;;4.22;;
66095;SDS011;53861;53.422;14.530;2023-08-30T10:26:38;13.18;;;4.50;;
66095;SDS011;53861;53.422;14.530;2023-08-30T10:29:08;8.55;;;4.38;;
66095;SDS011;53861;53.422;14.530;2023-08-30T10:31:38;6.85;;;3.55;;
66095;SDS011;53861;53.422;14.530;2023-08-30T10:34:11;8.20;;;3.90;;
66095;SDS011;53861;53.422;14.530;2023-08-30T10:36:41;8.77;;;4.05;;
66095;SDS011;53861;53.422;14.530;2023-08-30T10:39:10;5.97;;;3.63;;
66095;SDS011;53861;53.422;14.530;2023-08-30T10:41:53;9.07;;;3.30;;
66095;SDS011;53861;53.422;14.530;2023-08-30T10:44:21;6.15;;;3.60;;
66095;SDS011;53861;53.422;14.530;2023-08-30T10:46:53;8.05;;;4.10;;
66095;SDS011;53861;53.422;14.530;2023-08-30T10:49:20;10.18;;;3.70;;
66095;SDS011;53861;53.422;14.530;2023-08-30T10:51:55;10.15;;;3.83;;
66095;SDS011;53861;53.422;14.530;2023-08-30T10:54:24;6.75;;;3.55;;
66095;SDS011;53861;53.422;14.530;2023-08-30T10:56:55;10.10;;;3.83;;
66095;SDS011;53861;53.422;14.530;2023-08-30T10:59:25;8.65;;;4.28;;
66095;SDS011;53861;53.422;14.530;2023-08-30T11:01:54;12.88;;;4.97;;
66095;SDS011;53861;53.422;14.530;2023-08-30T11:04:21;5.97;;;2.30;;
66095;SDS011;53861;53.422;14.530;2023-08-30T11:06:50;9.55;;;3.10;;
66095;SDS011;53861;53.422;14.530;2023-08-30T11:09:18;5.05;;;2.95;;
66095;SDS011;53861;53.422;14.530;2023-08-30T11:11:48;7.78;;;2.60;;
66095;SDS011;53861;53.422;14.530;2023-08-30T11:14:16;7.70;;;3.42;;
66095;SDS011;53861;53.422;14.530;2023-08-30T11:16:44;9.07;;;3.70;;
66095;SDS011;53861;53.422;14.530;2023-08-30T11:19:13;8.73;;;3.08;;
66095;SDS011;53861;53.422;14.530;2023-08-30T11:21:42;9.55;;;2.90;;
66095;SDS011;53861;53.422;14.530;2023-08-30T11:24:11;6.75;;;3.10;;
66095;SDS011;53861;53.422;14.530;2023-08-30T11:26:38;5.70;;;3.10;;
66095;SDS011;53861;53.422;14.530;2023-08-30T11:29:06;6.07;;;3.28;;
66095;SDS011;53861;53.422;14.530;2023-08-30T11:31:34;8.18;;;3.83;;
66095;SDS011;53861;53.422;14.530;2023-08-30T11:34:02;8.80;;;3.03;;
66095;SDS011;53861;53.422;14.530;2023-08-30T11:36:31;6.15;;;3.13;;
66095;SDS011;53861;53.422;14.530;2023-08-30T11:39:00;6.68;;;2.60;;
66095;SDS011;53861;53.422;14.530;2023-08-30T11:41:27;6.60;;;2.90;;
66095;SDS011;53861;53.422;14.530;2023-08-30T11:43:54;6.07;;;2.20;;
66095;SDS011;53861;53.422;14.530;2023-08-30T11:46:22;5.97;;;2.30;;
66095;SDS011;53861;53.422;14.530;2023-08-30T11:48:50;5.68;;;2.42;;
66095;SDS011;53861;53.422;14.530;2023-08-30T11:51:18;4.90;;;2.53;;
66095;SDS011;53861;53.422;14.530;2023-08-30T11:53:47;5.18;;;2.30;;
66095;SDS011;53861;53.422;14.530;2023-08-30T11:56:16;5.80;;;2.25;;
66095;SDS011;53861;53.422;14.530;2023-08-30T11:58:44;5.10;;;1.80;;
66095;SDS011;53861;53.422;14.530;2023-08-30T12:01:12;9.15;;;2.05;;
66095;SDS011;53861;53.422;14.530;2023-08-30T12:03:40;5.85;;;2.10;;
66095;SDS011;53861;53.422;14.530;2023-08-30T12:06:10;5.22;;;1.90;;
66095;SDS011;53861;53.422;14.530;2023-08-30T12:08:38;4.65;;;1.60;;
66095;SDS011;53861;53.422;14.530;2023-08-30T12:11:16;6.05;;;1.75;;
66095;SDS011;53861;53.422;14.530;2023-08-30T12:13:44;4.13;;;1.50;;
66095;SDS011;53861;53.422;14.530;2023-08-30T12:16:16;6.53;;;1.70;;
66095;SDS011;53861;53.422;14.530;2023-08-30T12:18:45;4.72;;;1.70;;
66095;SDS011;53861;53.422;14.530;2023-08-30T12:21:13;5.65;;;1.70;;
66095;SDS011;53861;53.422;14.530;2023-08-30T12:23:41;11.10;;;2.53;;
66095;SDS011;53861;53.422;14.530;2023-08-30T12:26:10;5.15;;;1.52;;
66095;SDS011;53861;53.422;14.530;2023-08-30T12:28:38;6.97;;;2.25;;
66095;SDS011;53861;53.422;14.530;2023-08-30T12:31:05;11.80;;;3.40;;
66095;SDS011;53861;53.422;14.530;2023-08-30T12:33:34;11.70;;;6.10;;
66095;SDS011;53861;53.422;14.530;2023-08-30T12:36:01;5.55;;;2.67;;
66095;SDS011;53861;53.422;14.530;2023-08-30T12:38:29;8.02;;;2.47;;
66095;SDS011;53861;53.422;14.530;2023-08-30T12:40:57;5.40;;;1.88;;
66095;SDS011;53861;53.422;14.530;2023-08-30T12:43:25;8.52;;;2.25;;
66095;SDS011;53861;53.422;14.530;2023-08-30T12:45:53;3.78;;;1.50;;
66095;SDS011;53861;53.422;14.530;2023-08-30T12:48:21;3.95;;;1.60;;
66095;SDS011;53861;53.422;14.530;2023-08-30T12:50:48;3.65;;;1.40;;
66095;SDS011;53861;53.422;14.530;2023-08-30T12:53:16;8.50;;;2.17;;
66095;SDS011;53861;53.422;14.530;2023-08-30T12:55:43;5.53;;;1.80;;
66095;SDS011;53861;53.422;14.530;2023-08-30T12:58:10;8.02;;;1.80;;
66095;SDS011;53861;53.422;14.530;2023-08-30T13:00:41;5.07;;;1.52;;
66095;SDS011;53861;53.422;14.530;2023-08-30T13:03:08;5.32;;;1.50;;
66095;SDS011;53861;53.422;14.530;2023-08-30T13:05:35;4.75;;;1.67;;
66095;SDS011;53861;53.422;14.530;2023-08-30T13:08:03;6.07;;;2.10;;
66095;SDS011;53861;53.422;14.530;2023-08-30T13:10:30;3.33;;;1.70;;
66095;SDS011;53861;53.422;14.530;2023-08-30T13:12:58;7.45;;;1.77;;
66095;SDS011;53861;53.422;14.530;2023-08-30T13:15:25;5.38;;;1.70;;
66095;SDS011;53861;53.422;14.530;2023-08-30T13:17:54;5.35;;;1.77;;
66095;SDS011;53861;53.422;14.530;2023-08-30T13:20:21;5.25;;;1.60;;
66095;SDS011;53861;53.422;14.530;2023-08-30T13:22:48;7.85;;;2.20;;
66095;SDS011;53861;53.422;14.530;2023-08-30T13:25:16;6.18;;;1.80;;
66095;SDS011;53861;53.422;14.530;2023-08-30T13:27:43;7.25;;;4.45;;
66095;SDS011;53861;53.422;14.530;2023-08-30T13:30:11;4.47;;;1.92;;
66095;SDS011;53861;53.422;14.530;2023-08-30T13:32:38;4.88;;;1.77;;
66095;SDS011;53861;53.422;14.530;2023-08-30T13:35:07;6.72;;;2.38;;
66095;SDS011;53861;53.422;14.530;2023-08-30T13:37:35;7.95;;;1.70;;
66095;SDS011;53861;53.422;14.530;2023-08-30T13:40:02;7.05;;;2.70;;
66095;SDS011;53861;53.422;14.530;2023-08-30T13:42:31;4.50;;;1.48;;
66095;SDS011;53861;53.422;14.530;2023-08-30T13:44:58;2.85;;;1.40;;
66095;SDS011;53861;53.422;14.530;2023-08-30T13:47:25;2.97;;;1.42;;
66095;SDS011;53861;53.422;14.530;2023-08-30T13:49:52;6.40;;;1.50;;
66095;SDS011;53861;53.422;14.530;2023-08-30T13:52:21;5.00;;;1.52;;
66095;SDS011;53861;53.422;14.530;2023-08-30T13:54:48;6.47;;;1.92;;
66095;SDS011;53861;53.422;14.530;2023-08-30T13:57:16;4.88;;;1.65;;
66095;SDS011;53861;53.422;14.530;2023-08-30T13:59:43;4.20;;;1.60;;
66095;SDS011;53861;53.422;14.530;2023-08-30T14:02:10;3.83;;;1.60;;
66095;SDS011;53861;53.422;14.530;2023-08-30T14:04:38;3.03;;;1.55;;
66095;SDS011;53861;53.422;14.530;2023-08-30T14:07:05;5.65;;;1.55;;
66095;SDS011;53861;53.422;14.530;2023-08-30T14:09:33;4.18;;;1.80;;
66095;SDS011;53861;53.422;14.530;2023-08-30T14:12:01;6.18;;;1.30;;
66095;SDS011;53861;53.422;14.530;2023-08-30T14:14:29;2.50;;;1.30;;
66095;SDS011;53861;53.422;14.530;2023-08-30T14:16:56;4.97;;;1.60;;
66095;SDS011;53861;53.422;14.530;2023-08-30T14:19:25;4.75;;;1.80;;
66095;SDS011;53861;53.422;14.530;2023-08-30T14:21:52;5.80;;;2.15;;
66095;SDS011;53861;53.422;14.530;2023-08-30T14:24:21;6.47;;;2.30;;
66095;SDS011;53861;53.422;14.530;2023-08-30T14:26:50;5.38;;;1.40;;
66095;SDS011;53861;53.422;14.530;2023-08-30T14:29:19;3.75;;;1.30;;
66095;SDS011;53861;53.422;14.530;2023-08-30T14:31:47;3.92;;;1.23;;
66095;SDS011;53861;53.422;14.530;2023-08-30T14:34:14;4.82;;;1.80;;
66095;SDS011;53861;53.422;14.530;2023-08-30T14:36:41;5.40;;;1.70;;